Time;durP1;ratioP1;P1;durP2;ratioP2;P2;SDS_P1;SDS_P2;PMS_P1;PMS_P2;Temp;Humidity;BMP_temperature;BMP_pressure;BME280_temperature;BME280_humidity;BME280_pressure;Samples;Min_cycle;Max_cycle;Signal;HPM_P1;HPM_P2
2022/09/18 00:02:15;;;;;;;9.27;2.25;;;7.30;87.80;;;;;;5009495;28;20030;-69
2022/09/18 00:04:44;;;;;;;6.65;2.08;;;7.30;87.70;;;;;;5019028;28;20038;-68
2022/09/18 00:07:12;;;;;;;7.57;2.55;;;7.30;88.00;;;;;;5013341;28;20038;-68
2022/09/18 00:09:38;;;;;;;9.70;2.60;;;7.30;87.90;;;;;;5010877;28;20033;-68
2022/09/18 00:12:04;;;;;;;9.13;2.30;;;7.30;88.50;;;;;;5010696;28;20033;-69
2022/09/18 00:14:35;;;;;;;5.93;2.50;;;7.40;88.60;;;;;;5010883;28;20381;-69
2022/09/18 00:17:01;;;;;;;7.13;2.35;;;7.40;88.70;;;;;;5016437;28;20022;-68
2022/09/18 00:19:27;;;;;;;13.85;2.50;;;7.40;88.40;;;;;;5013835;28;20026;-68
2022/09/18 00:21:53;;;;;;;8.30;3.28;;;7.40;87.40;;;;;;5018098;28;20468;-68
2022/09/18 00:24:24;;;;;;;5.82;2.42;;;7.40;87.00;;;;;;5003084;28;20026;-68
2022/09/18 00:26:50;;;;;;;12.60;2.75;;;7.40;87.70;;;;;;5002517;28;20033;-68
2022/09/18 00:29:16;;;;;;;11.75;2.67;;;7.40;88.40;;;;;;5018917;28;20363;-69
2022/09/18 00:31:43;;;;;;;8.30;2.55;;;7.30;88.30;;;;;;5008616;28;20037;-69
2022/09/18 00:34:14;;;;;;;11.82;2.58;;;7.30;87.80;;;;;;5018081;28;20029;-69
2022/09/18 00:36:40;;;;;;;10.02;2.83;;;7.30;89.10;;;;;;5009411;28;20088;-68
2022/09/18 00:39:10;;;;;;;7.50;2.33;;;7.30;89.50;;;;;;5016429;28;20025;-69
2022/09/18 00:41:40;;;;;;;5.60;2.38;;;7.30;89.20;;;;;;5014220;28;20053;-69
2022/09/18 00:44:41;;;;;;;6.50;2.50;;;7.30;88.90;;;;;;5022046;28;20081;-69
2022/09/18 00:47:23;;;;;;;6.82;2.60;;;7.30;88.80;;;;;;5012516;28;20030;-68
2022/09/18 00:49:56;;;;;;;11.70;2.75;;;7.30;88.90;;;;;;5007156;28;20096;-67
2022/09/18 00:52:27;;;;;;;9.52;2.30;;;7.30;89.50;;;;;;5006652;28;20021;-68
2022/09/18 00:55:02;;;;;;;5.55;2.03;;;7.30;89.20;;;;;;5013160;28;20427;-68
2022/09/18 00:57:31;;;;;;;8.50;2.40;;;7.30;90.10;;;;;;5010020;28;20026;-68
2022/09/18 00:59:59;;;;;;;7.43;2.55;;;7.20;89.70;;;;;;5006177;28;20403;-69
2022/09/18 01:02:25;;;;;;;7.53;2.17;;;7.30;89.60;;;;;;5017855;28;20073;-68
2022/09/18 01:04:54;;;;;;;7.35;2.78;;;7.30;89.60;;;;;;5016971;28;20030;-68
2022/09/18 01:07:31;;;;;;;7.10;2.70;;;7.30;90.10;;;;;;5014037;28;20033;-68
2022/09/18 01:10:24;;;;;;;5.78;2.40;;;7.30;90.40;;;;;;5006008;28;20030;-69
2022/09/18 01:12:57;;;;;;;8.02;2.40;;;7.30;90.30;;;;;;5014515;28;20027;-68
2022/09/18 01:15:22;;;;;;;9.98;2.47;;;7.30;90.70;;;;;;5014632;28;21637;-69
2022/09/18 01:18:38;;;;;;;9.93;2.47;;;7.30;90.20;;;;;;5017575;28;20036;-68
2022/09/18 01:21:42;;;;;;;10.18;2.65;;;7.30;90.70;;;;;;4951424;28;20035;-67
2022/09/18 01:24:33;;;;;;;8.43;2.28;;;7.30;90.10;;;;;;4958159;28;20162;-68
2022/09/18 01:27:04;;;;;;;11.07;3.92;;;7.30;90.00;;;;;;5005891;28;20038;-68
2022/09/18 01:29:52;;;;;;;10.00;2.35;;;7.30;90.50;;;;;;5024140;28;20080;-70
2022/09/18 01:32:47;;;;;;;7.95;2.08;;;7.30;90.70;;;;;;5009511;28;20049;-69
2022/09/18 01:35:23;;;;;;;;;;;7.30;91.50;;;;;;5023145;28;20382;-69
2022/09/18 01:38:06;;;;;;;6.63;2.05;;;7.30;91.60;;;;;;5012344;28;19909;-70
2022/09/18 01:40:55;;;;;;;10.65;2.30;;;7.30;92.90;;;;;;5016721;28;20030;-70
2022/09/18 01:43:23;;;;;;;8.30;2.28;;;7.30;93.00;;;;;;5011049;28;20042;-69
2022/09/18 01:45:58;;;;;;;8.48;2.33;;;7.30;93.50;;;;;;5012136;28;20556;-69
2022/09/18 01:48:35;;;;;;;5.55;2.13;;;7.30;93.10;;;;;;5016392;28;20056;-70
2022/09/18 01:51:10;;;;;;;12.30;2.72;;;7.30;93.90;;;;;;5028022;28;20018;-70
2022/09/18 01:53:41;;;;;;;8.52;2.63;;;7.30;94.00;;;;;;4995894;28;20021;-70
2022/09/18 01:56:23;;;;;;;8.35;2.30;;;7.30;93.30;;;;;;5015804;28;20034;-70
2022/09/18 01:58:51;;;;;;;8.13;2.00;;;7.30;93.20;;;;;;5014098;28;20101;-70
2022/09/18 02:01:21;;;;;;;10.95;2.22;;;7.30;94.00;;;;;;5012709;28;20419;-70
2022/09/18 02:04:01;;;;;;;8.95;2.17;;;7.20;93.80;;;;;;5012137;28;20029;-70
2022/09/18 02:07:10;;;;;;;12.30;2.67;;;7.20;93.40;;;;;;5017927;28;20064;-70
2022/09/18 02:09:36;;;;;;;9.05;2.33;;;7.20;93.70;;;;;;4954158;28;20039;-69
2022/09/18 02:12:05;;;;;;;11.13;2.03;;;7.20;93.60;;;;;;4949656;29;20054;-69
2022/09/18 02:14:46;;;;;;;12.13;2.30;;;7.20;93.90;;;;;;4975698;28;20046;-70
2022/09/18 02:17:29;;;;;;;8.95;2.20;;;7.20;93.70;;;;;;5005025;28;20022;-69
2022/09/18 02:20:08;;;;;;;8.13;2.25;;;7.20;94.70;;;;;;5010348;28;20037;-69
2022/09/18 02:22:35;;;;;;;10.77;2.60;;;7.30;95.70;;;;;;5008453;28;20033;-69
2022/09/18 02:25:05;;;;;;;8.38;2.30;;;7.30;95.60;;;;;;5012937;28;20069;-69
2022/09/18 02:27:35;;;;;;;9.63;2.20;;;7.30;96.30;;;;;;5017428;28;20092;-69
2022/09/18 02:30:02;;;;;;;7.38;2.22;;;7.30;95.30;;;;;;5008637;28;20021;-70
2022/09/18 02:32:28;;;;;;;10.20;2.63;;;7.40;96.00;;;;;;5008027;28;20025;-69
2022/09/18 02:34:54;;;;;;;7.25;2.33;;;7.40;96.10;;;;;;5002815;28;20032;-69
2022/09/18 02:37:42;;;;;;;9.82;2.58;;;7.40;95.50;;;;;;5017676;28;20386;-69
2022/09/18 02:40:08;;;;;;;11.70;3.70;;;7.40;95.50;;;;;;5013348;28;20028;-69
2022/09/18 02:42:59;;;;;;;10.63;3.15;;;7.40;95.10;;;;;;5017790;28;20016;-67
2022/09/18 02:45:30;;;;;;;10.65;2.90;;;7.40;94.90;;;;;;5021365;28;20062;-69
2022/09/18 02:48:18;;;;;;;10.63;3.05;;;7.40;95.10;;;;;;5021714;28;20438;-69
2022/09/18 02:50:44;;;;;;;7.15;2.92;;;7.40;94.80;;;;;;5010418;28;20045;-69
2022/09/18 02:53:29;;;;;;;9.75;2.72;;;7.40;94.60;;;;;;5005680;28;20088;-70
2022/09/18 02:56:07;;;;;;;7.00;2.90;;;7.40;94.10;;;;;;5012260;28;20463;-69
2022/09/18 02:58:54;;;;;;;10.48;3.90;;;7.40;94.70;;;;;;5006508;28;20368;-70
2022/09/18 03:01:23;;;;;;;9.88;3.03;;;7.40;93.30;;;;;;4993409;28;20072;-69
2022/09/18 03:03:50;;;;;;;10.43;3.63;;;7.40;93.80;;;;;;5008136;28;20069;-69
2022/09/18 03:06:17;;;;;;;7.82;3.10;;;7.30;93.10;;;;;;5007406;28;20062;-69
2022/09/18 03:08:45;;;;;;;9.52;3.70;;;7.30;93.00;;;;;;5012798;28;20056;-69
2022/09/18 03:11:10;;;;;;;10.27;3.28;;;7.30;92.60;;;;;;5021471;28;20038;-70
2022/09/18 03:13:36;;;;;;;5.63;2.85;;;7.30;92.90;;;;;;5019423;28;20083;-69
2022/09/18 03:16:02;;;;;;;8.88;3.17;;;7.30;92.80;;;;;;5022196;28;20091;-70
2022/09/18 03:18:27;;;;;;;8.48;3.28;;;7.30;92.70;;;;;;5002765;28;20040;-70
2022/09/18 03:20:53;;;;;;;9.15;3.70;;;7.30;93.00;;;;;;5012056;28;20044;-70
2022/09/18 03:23:19;;;;;;;8.13;3.10;;;7.30;94.00;;;;;;5006513;28;20034;-71
2022/09/18 03:25:50;;;;;;;7.82;3.38;;;7.30;93.80;;;;;;5010465;28;20105;-71
2022/09/18 03:28:20;;;;;;;9.30;2.72;;;7.30;94.90;;;;;;5007747;28;20087;-70
2022/09/18 03:30:45;;;;;;;8.27;3.17;;;7.30;94.60;;;;;;4998503;28;20452;-70
2022/09/18 03:33:11;;;;;;;10.32;3.55;;;7.30;94.10;;;;;;5009383;28;20069;-70
2022/09/18 03:35:41;;;;;;;11.95;2.92;;;7.30;93.50;;;;;;5015050;28;20489;-71
2022/09/18 03:38:07;;;;;;;8.05;3.60;;;7.30;93.60;;;;;;5013310;28;20096;-70
2022/09/18 03:40:33;;;;;;;8.38;2.95;;;7.30;92.80;;;;;;5016298;28;20025;-70
2022/09/18 03:43:01;;;;;;;8.07;3.22;;;7.30;94.20;;;;;;5010254;28;20389;-70
2022/09/18 03:45:27;;;;;;;15.55;3.53;;;7.30;94.00;;;;;;5012278;28;20022;-70
2022/09/18 03:47:53;;;;;;;11.10;3.40;;;7.30;94.00;;;;;;4995260;28;20037;-69
2022/09/18 03:50:21;;;;;;;10.68;3.72;;;7.20;93.60;;;;;;5015064;28;20050;-69
2022/09/18 03:52:47;;;;;;;7.43;3.03;;;7.20;93.80;;;;;;5017377;28;20049;-70
2022/09/18 03:55:15;;;;;;;9.60;3.20;;;7.20;94.00;;;;;;5010773;28;20053;-69
2022/09/18 03:57:41;;;;;;;8.05;3.22;;;7.20;93.30;;;;;;5001600;28;20038;-69
2022/09/18 04:00:10;;;;;;;10.93;2.90;;;7.20;92.90;;;;;;5013907;28;20117;-70
2022/09/18 04:02:36;;;;;;;12.82;3.35;;;7.20;92.80;;;;;;5000985;28;20304;-70
2022/09/18 04:05:01;;;;;;;11.65;3.00;;;7.20;93.90;;;;;;5011612;28;20100;-69
2022/09/18 04:07:30;;;;;;;12.25;4.07;;;7.20;93.90;;;;;;5010991;28;20022;-69
2022/09/18 04:09:56;;;;;;;6.15;2.70;;;7.20;93.90;;;;;;5010029;28;20038;-69
2022/09/18 04:12:21;;;;;;;10.52;3.20;;;7.20;93.90;;;;;;5008630;28;20324;-69
2022/09/18 04:14:47;;;;;;;7.05;2.95;;;7.20;93.70;;;;;;5022865;28;20098;-69
2022/09/18 04:17:15;;;;;;;7.60;3.47;;;7.20;93.60;;;;;;5010542;28;20025;-69
2022/09/18 04:19:41;;;;;;;8.35;2.92;;;7.20;93.30;;;;;;5011383;28;20435;-70
2022/09/18 04:22:07;;;;;;;8.07;2.95;;;7.20;94.00;;;;;;5010099;28;20036;-69
2022/09/18 04:24:34;;;;;;;13.63;3.17;;;7.20;93.20;;;;;;5016916;28;20140;-69
2022/09/18 04:27:00;;;;;;;7.30;2.70;;;7.20;93.00;;;;;;5013344;28;20041;-69
2022/09/18 04:29:25;;;;;;;7.22;2.97;;;7.20;93.30;;;;;;5012324;28;20791;-67
2022/09/18 04:31:51;;;;;;;11.77;3.10;;;7.20;92.80;;;;;;5001914;28;20172;-69
2022/09/18 04:34:17;;;;;;;8.98;3.80;;;7.20;92.10;;;;;;5009559;28;20037;-69
2022/09/18 04:36:42;;;;;;;9.10;3.17;;;7.20;92.60;;;;;;5005420;28;20018;-69
2022/09/18 04:39:08;;;;;;;7.80;3.28;;;7.20;92.50;;;;;;5013292;28;20041;-69
2022/09/18 04:41:36;;;;;;;7.15;3.67;;;7.20;92.00;;;;;;5007060;28;20026;-69
2022/09/18 04:44:02;;;;;;;6.90;2.85;;;7.20;91.30;;;;;;5009875;28;20035;-70
2022/09/18 04:46:28;;;;;;;9.25;3.55;;;7.20;91.40;;;;;;5012348;28;20373;-69
2022/09/18 04:48:56;;;;;;;6.32;3.15;;;7.20;91.00;;;;;;5008096;28;20061;-69
2022/09/18 04:51:22;;;;;;;9.02;3.47;;;7.20;90.10;;;;;;5012365;28;20109;-69
2022/09/18 04:53:47;;;;;;;11.05;4.22;;;7.20;89.90;;;;;;4997196;28;20121;-69
2022/09/18 04:56:13;;;;;;;9.75;4.15;;;7.20;89.90;;;;;;5007238;28;20022;-69
2022/09/18 04:58:39;;;;;;;9.52;3.47;;;7.20;89.90;;;;;;5010436;28;20427;-70
2022/09/18 05:01:04;;;;;;;9.90;3.50;;;7.30;89.30;;;;;;5005395;28;20411;-69
2022/09/18 05:03:32;;;;;;;5.95;3.13;;;7.20;89.20;;;;;;5004168;28;20033;-69
2022/09/18 05:05:58;;;;;;;8.73;3.95;;;7.30;88.70;;;;;;5006241;28;20026;-70
2022/09/18 05:08:24;;;;;;;8.77;3.70;;;7.20;89.00;;;;;;5010773;28;20029;-70
2022/09/18 05:10:49;;;;;;;8.05;3.55;;;7.20;88.20;;;;;;5008772;28;20120;-70
2022/09/18 05:13:18;;;;;;;7.32;4.25;;;7.20;87.70;;;;;;5015140;28;20032;-69
2022/09/18 05:15:44;;;;;;;10.95;3.90;;;7.20;87.10;;;;;;5013712;28;20088;-69
2022/09/18 05:18:12;;;;;;;12.52;4.63;;;7.10;86.90;;;;;;5014683;28;20034;-70
2022/09/18 05:20:38;;;;;;;11.88;5.30;;;7.10;86.60;;;;;;5014597;28;20072;-70
2022/09/18 05:23:05;;;;;;;11.85;4.28;;;7.10;85.80;;;;;;5021803;28;20868;-69
2022/09/18 05:25:31;;;;;;;14.93;4.53;;;7.10;85.10;;;;;;4991217;28;20034;-70
2022/09/18 05:27:59;;;;;;;8.15;4.00;;;7.10;85.10;;;;;;5016467;28;20092;-70
2022/09/18 05:30:26;;;;;;;7.63;3.97;;;7.10;84.30;;;;;;5006013;28;20092;-69
2022/09/18 05:32:59;;;;;;;10.25;3.30;;;7.10;84.50;;;;;;5005178;28;20037;-69
2022/09/18 05:35:26;;;;;;;11.30;3.33;;;7.20;84.50;;;;;;5000604;28;20034;-69
2022/09/18 05:37:53;;;;;;;11.25;3.95;;;7.10;85.00;;;;;;5010646;28;20144;-69
2022/09/18 05:40:24;;;;;;;9.38;3.72;;;7.10;85.30;;;;;;5017243;28;20544;-69
2022/09/18 05:42:53;;;;;;;10.40;4.43;;;7.10;85.20;;;;;;5001965;28;20163;-70
2022/09/18 05:45:21;;;;;;;12.23;4.07;;;7.20;85.00;;;;;;5018884;28;20054;-70
2022/09/18 05:47:56;;;;;;;11.77;3.25;;;7.20;84.70;;;;;;5006485;28;20049;-70
2022/09/18 05:50:27;;;;;;;11.57;3.08;;;7.20;86.90;;;;;;5000251;28;20346;-69
2022/09/18 05:53:06;;;;;;;9.35;2.83;;;7.20;87.60;;;;;;5008907;28;20095;-69
2022/09/18 05:55:33;;;;;;;11.05;4.32;;;7.20;88.40;;;;;;5010221;28;20041;-69
2022/09/18 05:58:00;;;;;;;10.57;3.53;;;7.20;88.10;;;;;;5010087;28;20449;-69
2022/09/18 06:00:31;;;;;;;8.10;2.95;;;7.20;88.20;;;;;;5009445;28;20029;-69
2022/09/18 06:03:01;;;;;;;11.00;3.47;;;7.20;88.60;;;;;;5009242;28;20337;-69
2022/09/18 06:05:29;;;;;;;8.57;3.22;;;7.30;87.90;;;;;;5015074;28;20435;-70
2022/09/18 06:07:57;;;;;;;8.48;3.50;;;7.30;88.40;;;;;;5019299;28;20029;-69
2022/09/18 06:10:23;;;;;;;12.30;2.97;;;7.30;89.30;;;;;;5007061;28;20042;-68
2022/09/18 06:12:49;;;;;;;8.70;2.85;;;7.30;89.30;;;;;;5008185;28;20030;-69
2022/09/18 06:15:15;;;;;;;7.00;2.97;;;7.30;89.50;;;;;;5011633;28;20407;-69
2022/09/18 06:17:49;;;;;;;7.90;2.80;;;7.40;89.70;;;;;;4999105;28;20026;-70
2022/09/18 06:20:15;;;;;;;9.30;3.00;;;7.40;89.90;;;;;;5013352;28;20386;-71
2022/09/18 06:22:40;;;;;;;7.22;2.50;;;7.40;89.30;;;;;;5023590;28;20061;-70
2022/09/18 06:25:09;;;;;;;8.73;2.67;;;7.50;91.80;;;;;;5007262;28;20057;-69
2022/09/18 06:27:35;;;;;;;7.80;2.58;;;7.50;91.80;;;;;;5007810;28;20030;-71
2022/09/18 06:30:00;;;;;;;9.27;2.58;;;7.60;91.70;;;;;;5010609;28;20147;-71
2022/09/18 06:32:26;;;;;;;7.80;3.17;;;7.60;93.20;;;;;;5011067;28;20481;-70
2022/09/18 06:34:54;;;;;;;6.05;2.75;;;7.70;93.10;;;;;;5015362;28;20040;-69
2022/09/18 06:37:20;;;;;;;6.43;2.70;;;7.70;93.10;;;;;;5004501;28;20026;-69
2022/09/18 06:39:45;;;;;;;10.10;3.35;;;7.70;93.30;;;;;;5016348;28;20033;-69
2022/09/18 06:42:11;;;;;;;8.88;2.78;;;7.80;93.30;;;;;;5014794;28;20026;-70
2022/09/18 06:44:37;;;;;;;7.80;2.72;;;7.80;94.90;;;;;;5014560;28;20117;-69
2022/09/18 06:47:06;;;;;;;15.70;3.17;;;7.80;94.30;;;;;;4991203;28;20116;-70
2022/09/18 06:49:31;;;;;;;7.70;2.50;;;7.90;95.30;;;;;;5009121;28;20061;-69
2022/09/18 06:52:01;;;;;;;6.70;2.80;;;8.00;94.60;;;;;;4989376;28;20056;-68
2022/09/18 06:54:29;;;;;;;8.60;2.28;;;8.10;95.20;;;;;;4982387;28;20731;-70
2022/09/18 06:56:57;;;;;;;7.70;2.30;;;8.20;96.90;;;;;;5009295;28;20029;-69
2022/09/18 06:59:23;;;;;;;7.47;2.25;;;8.20;96.60;;;;;;5016453;28;20360;-71
2022/09/18 07:01:48;;;;;;;6.55;2.20;;;8.40;96.70;;;;;;5006281;28;20057;-69
2022/09/18 07:04:14;;;;;;;8.45;2.20;;;8.50;97.50;;;;;;5011402;28;20057;-69
2022/09/18 07:06:44;;;;;;;5.30;2.20;;;8.70;98.00;;;;;;5017054;28;20042;-69
2022/09/18 07:09:10;;;;;;;7.20;2.00;;;8.90;98.00;;;;;;5015530;28;20392;-69
2022/09/18 07:11:35;;;;;;;12.82;2.58;;;9.00;98.00;;;;;;5007308;28;20113;-69
2022/09/18 07:14:05;;;;;;;8.32;2.20;;;9.00;98.00;;;;;;5028706;28;20034;-69
2022/09/18 07:16:31;;;;;;;7.95;2.60;;;9.00;98.00;;;;;;4990180;28;20049;-70
2022/09/18 07:18:56;;;;;;;7.28;2.20;;;9.00;98.00;;;;;;5017194;28;20046;-69
2022/09/18 07:21:22;;;;;;;9.27;2.70;;;9.00;98.00;;;;;;5007092;28;20030;-70
2022/09/18 07:23:48;;;;;;;7.43;2.30;;;9.00;98.00;;;;;;5015719;28;20100;-70
2022/09/18 07:26:13;;;;;;;5.95;2.33;;;8.90;98.00;;;;;;5012391;28;20044;-69
2022/09/18 07:28:39;;;;;;;9.38;4.47;;;8.80;98.00;;;;;;5012977;28;20442;-70
2022/09/18 07:31:05;;;;;;;31.42;10.95;;;8.80;98.00;;;;;;5008326;28;20030;-69
2022/09/18 07:33:32;;;;;;;31.27;13.13;;;8.80;98.00;;;;;;5052336;23;20066;-70
2022/09/18 07:36:03;;;;;;;30.70;10.15;;;8.90;98.00;;;;;;5067195;28;20020;-68
2022/09/18 07:38:33;;;;;;;22.45;10.23;;;8.90;98.00;;;;;;5066325;28;20520;-69
2022/09/18 07:41:04;;;;;;;12.10;4.90;;;8.80;98.00;;;;;;5086208;28;20035;-70
2022/09/18 07:43:30;;;;;;;16.05;6.32;;;8.90;98.00;;;;;;5059825;28;20033;-70
2022/09/18 07:45:56;;;;;;;11.93;4.13;;;9.00;98.00;;;;;;5070839;28;20043;-68
2022/09/18 07:48:25;;;;;;;16.38;4.70;;;9.00;98.00;;;;;;5064600;28;20869;-69
2022/09/18 07:50:50;;;;;;;10.18;3.88;;;9.00;98.00;;;;;;5068788;28;20070;-69
2022/09/18 07:53:17;;;;;;;5.35;2.20;;;9.00;98.00;;;;;;5066643;28;20028;-68
2022/09/18 07:55:46;;;;;;;11.25;3.88;;;9.10;98.00;;;;;;5072912;28;20029;-70
2022/09/18 07:58:12;;;;;;;7.15;2.42;;;9.00;98.00;;;;;;5063262;28;20104;-69
2022/09/18 08:00:37;;;;;;;5.97;2.45;;;9.00;98.00;;;;;;5045590;28;20047;-69
2022/09/18 08:03:05;;;;;;;9.57;3.92;;;9.00;98.00;;;;;;5073306;28;20025;-69
2022/09/18 08:05:31;;;;;;;6.80;2.67;;;9.00;98.00;;;;;;5066189;28;20031;-69
2022/09/18 08:08:02;;;;;;;9.02;2.78;;;9.10;98.00;;;;;;5068147;28;20028;-69
2022/09/18 08:10:27;;;;;;;5.18;2.20;;;9.10;98.00;;;;;;5070817;28;20048;-69
2022/09/18 08:12:53;;;;;;;10.30;3.10;;;9.20;98.00;;;;;;5064127;28;20063;-69
2022/09/18 08:15:19;;;;;;;6.15;2.55;;;9.20;98.00;;;;;;5073059;28;20119;-69
2022/09/18 08:17:45;;;;;;;7.63;2.70;;;9.20;98.00;;;;;;5050831;28;20304;-69
2022/09/18 08:20:11;;;;;;;6.45;2.30;;;9.20;98.00;;;;;;5065652;28;20329;-69
2022/09/18 08:22:40;;;;;;;12.95;4.10;;;9.20;98.00;;;;;;5063237;28;20032;-69
2022/09/18 08:25:06;;;;;;;9.77;3.60;;;9.30;98.00;;;;;;5070029;28;20157;-68
2022/09/18 08:27:38;;;;;;;6.68;2.60;;;9.30;98.00;;;;;;5071122;28;20173;-68
2022/09/18 08:30:05;;;;;;;6.05;2.92;;;9.20;98.00;;;;;;5068790;28;20123;-68
2022/09/18 08:32:38;;;;;;;9.60;4.57;;;9.20;98.00;;;;;;5029470;28;20028;-69
2022/09/18 08:35:06;;;;;;;8.43;2.70;;;9.20;98.00;;;;;;5046763;28;20048;-68
2022/09/18 08:37:32;;;;;;;3.67;1.70;;;9.20;98.00;;;;;;5056910;28;20033;-68
2022/09/18 08:39:58;;;;;;;4.35;2.10;;;9.10;98.00;;;;;;5048375;28;20439;-67
2022/09/18 08:42:45;;;;;;;4.40;1.60;;;9.10;98.00;;;;;;5055664;28;20036;-68
2022/09/18 08:45:16;;;;;;;6.10;2.10;;;9.20;98.00;;;;;;5055523;28;20025;-67
2022/09/18 08:47:54;;;;;;;5.03;1.60;;;9.40;98.00;;;;;;5039563;28;20353;-69
2022/09/18 08:50:28;;;;;;;6.75;1.75;;;9.50;98.00;;;;;;5050019;28;20036;-68
2022/09/18 08:53:04;;;;;;;;;;;9.50;98.00;;;;;;5063322;28;20031;-69
2022/09/18 08:55:37;;;;;;;9.32;2.20;;;9.80;98.00;;;;;;5061117;28;19919;-68
2022/09/18 08:58:10;;;;;;;4.65;1.85;;;10.10;98.00;;;;;;5050186;28;20028;-68
2022/09/18 09:00:52;;;;;;;9.10;1.73;;;10.30;98.00;;;;;;5061364;28;20024;-67
2022/09/18 09:03:28;;;;;;;4.60;1.65;;;10.40;98.00;;;;;;5058982;28;20925;-67
2022/09/18 09:06:12;;;;;;;5.32;1.52;;;10.70;98.00;;;;;;5064347;28;20032;-69
2022/09/18 09:08:46;;;;;;;4.32;1.60;;;10.80;98.00;;;;;;5067239;28;20032;-68
2022/09/18 09:11:39;;;;;;;3.90;1.50;;;10.70;98.00;;;;;;5042117;28;20502;-70
2022/09/18 09:14:23;;;;;;;7.75;1.90;;;10.60;98.00;;;;;;5036298;28;20056;-68
2022/09/18 09:16:50;;;;;;;;;;;10.50;98.00;;;;;;5047901;28;20031;-68
2022/09/18 09:19:40;;;;;;;10.23;2.17;;;10.50;98.00;;;;;;5063971;28;21392;-69
2022/09/18 09:22:46;;;;;;;4.72;2.10;;;10.50;98.00;;;;;;5065787;28;20036;-69
2022/09/18 09:25:33;;;;;;;5.75;1.85;;;10.50;98.00;;;;;;5025942;28;20041;-68
2022/09/18 09:28:09;;;;;;;7.38;2.38;;;10.60;98.00;;;;;;5062882;28;20025;-69
2022/09/18 09:30:40;;;;;;;8.57;2.10;;;10.70;98.00;;;;;;5076454;28;20028;-70
2022/09/18 09:33:32;;;;;;;5.72;1.70;;;10.70;98.00;;;;;;5071074;28;20020;-70
2022/09/18 09:36:12;;;;;;;8.13;2.40;;;10.40;98.00;;;;;;5067465;28;20039;-69
2022/09/18 09:38:59;;;;;;;7.45;2.45;;;10.10;98.00;;;;;;5073216;28;20048;-69
2022/09/18 09:41:43;;;;;;;7.55;2.47;;;9.90;98.00;;;;;;5074405;28;20374;-69
2022/09/18 09:44:34;;;;;;;5.70;2.33;;;9.90;98.00;;;;;;5071189;28;20029;-68
2022/09/18 09:46:59;;;;;;;7.65;2.30;;;10.10;98.00;;;;;;5048940;28;20029;-69
2022/09/18 09:49:34;;;;;;;5.95;2.03;;;10.20;98.00;;;;;;5067416;28;20040;-68
2022/09/18 09:52:20;;;;;;;9.77;2.13;;;10.30;98.00;;;;;;5075639;28;20050;-69
2022/09/18 09:54:54;;;;;;;14.00;2.30;;;10.40;98.00;;;;;;5059884;28;20127;-70
2022/09/18 09:57:49;;;;;;;9.57;2.10;;;10.70;97.70;;;;;;5071051;28;20413;-69
2022/09/18 10:00:19;;;;;;;5.82;1.98;;;10.80;97.00;;;;;;5072292;28;20116;-69
2022/09/18 10:03:11;;;;;;;5.22;1.98;;;10.90;96.60;;;;;;5069107;28;20028;-68
2022/09/18 10:05:50;;;;;;;8.98;2.30;;;11.20;95.80;;;;;;5063077;28;20082;-70
2022/09/18 10:08:26;;;;;;;10.90;2.30;;;11.40;95.20;;;;;;5054101;28;20371;-68
2022/09/18 10:11:00;;;;;;;9.00;1.77;;;11.60;95.40;;;;;;5072687;28;20037;-69
2022/09/18 10:13:40;;;;;;;6.45;1.48;;;11.70;93.70;;;;;;5065640;28;20333;-68
2022/09/18 10:16:14;;;;;;;6.03;2.00;;;11.50;94.00;;;;;;5066488;28;20348;-68
2022/09/18 10:18:49;;;;;;;9.32;2.25;;;11.40;94.90;;;;;;5063807;28;20021;-68
2022/09/18 10:21:20;;;;;;;7.45;1.70;;;11.20;95.10;;;;;;5067550;28;20032;-68
2022/09/18 10:24:24;;;;;;;8.50;2.08;;;11.00;95.70;;;;;;5065800;28;20024;-69
2022/09/18 10:27:11;;;;;;;8.80;2.20;;;10.90;96.30;;;;;;5061733;28;20098;-70
2022/09/18 10:29:37;;;;;;;7.55;2.00;;;10.80;96.20;;;;;;5059331;28;20032;-70
2022/09/18 10:32:05;;;;;;;8.65;1.80;;;10.90;96.20;;;;;;5063818;28;20028;-68
2022/09/18 10:34:48;;;;;;;5.38;1.60;;;10.90;95.90;;;;;;5068642;28;20040;-69
2022/09/18 10:37:27;;;;;;;8.25;1.63;;;10.90;95.70;;;;;;5056005;28;20032;-69
2022/09/18 10:39:56;;;;;;;7.00;1.80;;;10.80;96.10;;;;;;5042955;28;20024;-69
2022/09/18 10:42:27;;;;;;;8.68;2.25;;;10.90;96.10;;;;;;5063008;28;20112;-69
2022/09/18 10:44:57;;;;;;;7.97;2.63;;;10.90;96.00;;;;;;5067629;28;20037;-69
2022/09/18 10:47:29;;;;;;;6.78;2.10;;;11.10;95.80;;;;;;5070549;28;20137;-68
2022/09/18 10:50:01;;;;;;;8.73;2.25;;;11.30;95.00;;;;;;5065103;28;20449;-68
2022/09/18 10:52:30;;;;;;;6.60;2.30;;;11.20;94.70;;;;;;5072410;28;20024;-68
2022/09/18 10:55:07;;;;;;;7.72;1.90;;;11.00;95.10;;;;;;5060717;28;20024;-68
2022/09/18 10:57:39;;;;;;;9.55;2.30;;;11.00;94.80;;;;;;5064648;28;20043;-68
2022/09/18 11:00:11;;;;;;;6.00;2.08;;;11.20;94.80;;;;;;5046569;28;20115;-68
2022/09/18 11:03:05;;;;;;;5.70;1.70;;;11.50;94.70;;;;;;5066798;28;20417;-69
2022/09/18 11:06:03;;;;;;;5.68;1.75;;;11.80;92.90;;;;;;5058732;28;20361;-69
2022/09/18 11:08:39;;;;;;;8.90;1.80;;;11.90;92.40;;;;;;5069041;28;20033;-68
2022/09/18 11:11:09;;;;;;;6.50;1.75;;;12.30;91.80;;;;;;5069482;28;20439;-70
2022/09/18 11:13:48;;;;;;;9.23;2.30;;;12.90;90.40;;;;;;5064322;28;20035;-68
2022/09/18 11:16:25;;;;;;;7.57;1.90;;;13.40;88.30;;;;;;5063837;28;20029;-67
2022/09/18 11:19:22;;;;;;;6.70;1.95;;;12.90;88.60;;;;;;5073023;28;20400;-70
2022/09/18 11:21:54;;;;;;;5.20;1.42;;;13.00;88.80;;;;;;5067862;28;20059;-69
2022/09/18 11:24:30;;;;;;;5.63;1.40;;;13.40;87.50;;;;;;5068064;28;20028;-67
2022/09/18 11:26:58;;;;;;;6.90;1.63;;;13.20;87.90;;;;;;5065318;28;20077;-67
2022/09/18 11:29:38;;;;;;;8.50;1.58;;;13.40;87.50;;;;;;5065008;28;20024;-69
2022/09/18 11:32:26;;;;;;;4.93;1.60;;;13.70;86.10;;;;;;5064827;28;20051;-69
2022/09/18 11:34:54;;;;;;;17.52;2.28;;;13.60;87.40;;;;;;5066978;28;20037;-69
2022/09/18 11:37:33;;;;;;;6.97;1.70;;;13.60;86.90;;;;;;5065283;28;20089;-69
2022/09/18 11:40:07;;;;;;;4.85;1.38;;;13.40;86.60;;;;;;5057144;28;20177;-68
2022/09/18 11:42:44;;;;;;;7.03;1.90;;;13.90;86.80;;;;;;5055339;28;20029;-69
2022/09/18 11:45:28;;;;;;;8.77;1.55;;;14.50;85.10;;;;;;5072927;28;20028;-67
2022/09/18 11:48:00;;;;;;;;;;;14.90;84.80;;;;;;5068328;28;20024;-69
2022/09/18 11:50:31;;;;;;;4.60;1.20;;;14.60;82.20;;;;;;5068876;28;19916;-69
2022/09/18 11:53:08;;;;;;;7.45;2.05;;;14.20;84.70;;;;;;5072101;28;20028;-69
2022/09/18 11:55:47;;;;;;;7.47;1.80;;;13.90;84.60;;;;;;5070368;28;20036;-69
2022/09/18 11:58:19;;;;;;;7.40;1.77;;;13.60;86.20;;;;;;5067343;28;20024;-69
2022/09/18 12:00:51;;;;;;;6.70;2.05;;;13.30;87.10;;;;;;5056886;28;20028;-71
2022/09/18 12:03:26;;;;;;;6.40;2.20;;;13.10;86.80;;;;;;5070614;28;20600;-69
2022/09/18 12:06:28;;;;;;;4.38;1.27;;;13.00;87.50;;;;;;5062817;28;20032;-69
2022/09/18 12:08:56;;;;;;;5.68;1.48;;;13.10;87.40;;;;;;5037965;28;20428;-69
2022/09/18 12:11:43;;;;;;;7.85;1.80;;;13.10;86.80;;;;;;5064972;28;20031;-69
2022/09/18 12:14:25;;;;;;;6.20;1.60;;;12.70;86.90;;;;;;5074280;28;20035;-70
2022/09/18 12:17:10;;;;;;;7.20;1.92;;;12.70;87.80;;;;;;5036103;28;20025;-69
2022/09/18 12:19:48;;;;;;;6.93;1.35;;;12.90;87.60;;;;;;5068473;28;20029;-70
2022/09/18 12:22:17;;;;;;;7.75;2.03;;;13.00;87.00;;;;;;5064949;28;20053;-68
2022/09/18 12:24:44;;;;;;;6.15;1.33;;;13.10;86.10;;;;;;5070759;28;20025;-68
2022/09/18 12:27:35;;;;;;;5.75;1.88;;;12.80;86.10;;;;;;5067287;28;20047;-69
2022/09/18 12:30:08;;;;;;;7.60;1.95;;;12.60;86.80;;;;;;5064076;28;20103;-68
2022/09/18 12:32:57;;;;;;;5.18;1.48;;;12.40;86.30;;;;;;5060826;28;20025;-68
2022/09/18 12:35:34;;;;;;;9.07;1.85;;;12.30;87.50;;;;;;5065434;28;20028;-68
2022/09/18 12:38:22;;;;;;;5.00;1.52;;;12.20;87.40;;;;;;5070786;28;20107;-70
2022/09/18 12:41:12;;;;;;;4.97;1.77;;;12.10;87.70;;;;;;5060287;28;20029;-69
2022/09/18 12:43:40;;;;;;;6.78;1.50;;;12.00;88.40;;;;;;5054188;28;20032;-70
2022/09/18 12:46:14;;;;;;;8.23;1.60;;;12.10;88.60;;;;;;5065879;28;20024;-70
2022/09/18 12:48:40;;;;;;;;;;;12.10;88.10;;;;;;5065930;28;20039;-69
2022/09/18 12:51:48;;;;;;;7.00;1.50;;;11.80;88.50;;;;;;5070849;28;20305;-68
2022/09/18 12:54:26;;;;;;;5.57;2.15;;;11.80;89.90;;;;;;5062056;28;20326;-67
2022/09/18 12:57:05;;;;;;;7.30;1.73;;;11.90;90.00;;;;;;5066003;28;20032;-68
2022/09/18 12:59:49;;;;;;;6.60;1.63;;;11.70;90.10;;;;;;5067571;28;20051;-69
2022/09/18 13:02:35;;;;;;;5.40;1.52;;;11.60;90.20;;;;;;5067418;28;20024;-68
2022/09/18 13:05:07;;;;;;;7.25;1.95;;;11.70;90.90;;;;;;5065790;28;20029;-68
2022/09/18 13:07:46;;;;;;;6.35;1.95;;;11.80;90.60;;;;;;5072191;28;20040;-68
2022/09/18 13:10:23;;;;;;;5.90;2.13;;;12.10;90.40;;;;;;5072232;28;20032;-68
2022/09/18 13:12:58;;;;;;;6.50;1.83;;;12.30;89.00;;;;;;5073333;28;20082;-68
2022/09/18 13:15:34;;;;;;;10.15;2.05;;;12.40;89.00;;;;;;5060942;28;20032;-67
2022/09/18 13:18:32;;;;;;;5.40;1.60;;;12.80;88.50;;;;;;5072887;28;20033;-67
2022/09/18 13:21:01;;;;;;;7.13;2.13;;;13.40;87.10;;;;;;5073261;28;20024;-69
2022/09/18 13:23:40;;;;;;;5.18;1.75;;;13.60;87.10;;;;;;5070995;28;20021;-70